sensor_id;sensor_type;location;lat;lon;timestamp;P1;durP1;ratioP1;P2;durP2;ratioP2
75496;SDS011;64074;47.540;19.072;2023-07-31T00:00:11;3.90;;;3.50;;
75496;SDS011;64074;47.540;19.072;2023-07-31T00:03:15;4.73;;;3.70;;
75496;SDS011;64074;47.540;19.072;2023-07-31T00:06:18;3.90;;;3.50;;
75496;SDS011;64074;47.540;19.072;2023-07-31T00:09:21;5.85;;;3.47;;
75496;SDS011;64074;47.540;19.072;2023-07-31T00:12:24;4.45;;;3.50;;
75496;SDS011;64074;47.540;19.072;2023-07-31T00:15:27;4.17;;;3.10;;
75496;SDS011;64074;47.540;19.072;2023-07-31T00:18:30;3.90;;;3.33;;
75496;SDS011;64074;47.540;19.072;2023-07-31T00:21:32;4.30;;;2.90;;
75496;SDS011;64074;47.540;19.072;2023-07-31T00:24:35;4.50;;;3.10;;
75496;SDS011;64074;47.540;19.072;2023-07-31T00:27:38;4.85;;;3.10;;
75496;SDS011;64074;47.540;19.072;2023-07-31T00:30:41;4.43;;;3.40;;
75496;SDS011;64074;47.540;19.072;2023-07-31T00:33:44;3.70;;;2.90;;
75496;SDS011;64074;47.540;19.072;2023-07-31T00:36:47;3.20;;;2.88;;
75496;SDS011;64074;47.540;19.072;2023-07-31T00:39:51;5.28;;;3.42;;
75496;SDS011;64074;47.540;19.072;2023-07-31T00:42:56;5.22;;;3.50;;
75496;SDS011;64074;47.540;19.072;2023-07-31T00:45:59;3.90;;;3.50;;
75496;SDS011;64074;47.540;19.072;2023-07-31T00:49:06;4.00;;;3.60;;
75496;SDS011;64074;47.540;19.072;2023-07-31T00:52:10;5.05;;;3.63;;
75496;SDS011;64074;47.540;19.072;2023-07-31T00:55:13;4.38;;;3.63;;
75496;SDS011;64074;47.540;19.072;2023-07-31T00:58:16;5.90;;;3.83;;
75496;SDS011;64074;47.540;19.072;2023-07-31T01:01:19;5.23;;;3.73;;
75496;SDS011;64074;47.540;19.072;2023-07-31T01:04:23;6.63;;;3.90;;
75496;SDS011;64074;47.540;19.072;2023-07-31T01:07:27;4.63;;;4.00;;
75496;SDS011;64074;47.540;19.072;2023-07-31T01:10:41;4.35;;;3.53;;
75496;SDS011;64074;47.540;19.072;2023-07-31T01:13:52;6.30;;;4.43;;
75496;SDS011;64074;47.540;19.072;2023-07-31T01:16:57;5.97;;;4.43;;
75496;SDS011;64074;47.540;19.072;2023-07-31T01:20:01;5.30;;;4.80;;
75496;SDS011;64074;47.540;19.072;2023-07-31T01:26:34;5.30;;;4.80;;
75496;SDS011;64074;47.540;19.072;2023-07-31T01:32:55;6.60;;;5.30;;
75496;SDS011;64074;47.540;19.072;2023-07-31T01:36:00;6.13;;;5.20;;
75496;SDS011;64074;47.540;19.072;2023-07-31T01:39:04;8.77;;;5.93;;
75496;SDS011;64074;47.540;19.072;2023-07-31T01:42:07;6.88;;;6.18;;
75496;SDS011;64074;47.540;19.072;2023-07-31T01:45:12;6.75;;;5.88;;
75496;SDS011;64074;47.540;19.072;2023-07-31T01:48:15;7.63;;;6.10;;
75496;SDS011;64074;47.540;19.072;2023-07-31T01:51:18;7.73;;;6.93;;
75496;SDS011;64074;47.540;19.072;2023-07-31T01:54:20;8.02;;;6.75;;
75496;SDS011;64074;47.540;19.072;2023-07-31T01:57:23;7.45;;;6.32;;
75496;SDS011;64074;47.540;19.072;2023-07-31T02:00:26;7.85;;;6.60;;
75496;SDS011;64074;47.540;19.072;2023-07-31T02:03:29;7.80;;;6.50;;
75496;SDS011;64074;47.540;19.072;2023-07-31T02:06:32;12.37;;;7.40;;
75496;SDS011;64074;47.540;19.072;2023-07-31T02:09:35;7.72;;;6.55;;
75496;SDS011;64074;47.540;19.072;2023-07-31T02:12:38;8.13;;;6.38;;
75496;SDS011;64074;47.540;19.072;2023-07-31T02:15:41;8.45;;;6.45;;
75496;SDS011;64074;47.540;19.072;2023-07-31T02:18:44;8.57;;;6.20;;
75496;SDS011;64074;47.540;19.072;2023-07-31T02:21:47;6.07;;;5.30;;
75496;SDS011;64074;47.540;19.072;2023-07-31T02:24:50;6.30;;;5.70;;
75496;SDS011;64074;47.540;19.072;2023-07-31T02:27:56;7.15;;;5.10;;
75496;SDS011;64074;47.540;19.072;2023-07-31T02:30:59;6.43;;;4.82;;
75496;SDS011;64074;47.540;19.072;2023-07-31T02:34:03;6.40;;;5.00;;
75496;SDS011;64074;47.540;19.072;2023-07-31T02:37:06;6.67;;;5.47;;
75496;SDS011;64074;47.540;19.072;2023-07-31T02:40:09;6.40;;;5.10;;
75496;SDS011;64074;47.540;19.072;2023-07-31T02:43:12;5.70;;;5.10;;
75496;SDS011;64074;47.540;19.072;2023-07-31T02:46:16;5.05;;;4.32;;
75496;SDS011;64074;47.540;19.072;2023-07-31T02:49:19;5.20;;;4.70;;
75496;SDS011;64074;47.540;19.072;2023-07-31T02:52:22;5.30;;;4.67;;
75496;SDS011;64074;47.540;19.072;2023-07-31T02:55:24;7.50;;;4.68;;
75496;SDS011;64074;47.540;19.072;2023-07-31T02:58:27;6.30;;;4.78;;
75496;SDS011;64074;47.540;19.072;2023-07-31T03:01:31;5.85;;;4.25;;
75496;SDS011;64074;47.540;19.072;2023-07-31T03:04:34;7.57;;;4.83;;
75496;SDS011;64074;47.540;19.072;2023-07-31T03:07:37;5.60;;;4.50;;
75496;SDS011;64074;47.540;19.072;2023-07-31T03:10:41;5.82;;;4.85;;
75496;SDS011;64074;47.540;19.072;2023-07-31T03:13:44;5.60;;;4.25;;
75496;SDS011;64074;47.540;19.072;2023-07-31T03:16:47;4.65;;;4.10;;
75496;SDS011;64074;47.540;19.072;2023-07-31T03:19:50;6.90;;;4.30;;
75496;SDS011;64074;47.540;19.072;2023-07-31T03:22:53;6.93;;;4.37;;
75496;SDS011;64074;47.540;19.072;2023-07-31T03:25:57;5.20;;;4.00;;
75496;SDS011;64074;47.540;19.072;2023-07-31T03:29:05;5.65;;;4.50;;
75496;SDS011;64074;47.540;19.072;2023-07-31T03:32:08;5.22;;;4.28;;
75496;SDS011;64074;47.540;19.072;2023-07-31T03:35:11;9.37;;;4.60;;
75496;SDS011;64074;47.540;19.072;2023-07-31T03:38:14;4.73;;;4.20;;
75496;SDS011;64074;47.540;19.072;2023-07-31T03:41:17;4.45;;;3.97;;
75496;SDS011;64074;47.540;19.072;2023-07-31T03:44:22;7.18;;;4.05;;
75496;SDS011;64074;47.540;19.072;2023-07-31T03:47:25;4.20;;;3.72;;
75496;SDS011;64074;47.540;19.072;2023-07-31T03:50:28;5.70;;;3.93;;
75496;SDS011;64074;47.540;19.072;2023-07-31T03:53:31;5.07;;;4.00;;
75496;SDS011;64074;47.540;19.072;2023-07-31T03:56:34;6.47;;;4.00;;
75496;SDS011;64074;47.540;19.072;2023-07-31T03:59:38;4.80;;;3.90;;
75496;SDS011;64074;47.540;19.072;2023-07-31T04:02:41;4.53;;;3.33;;
75496;SDS011;64074;47.540;19.072;2023-07-31T04:05:46;4.20;;;3.60;;
75496;SDS011;64074;47.540;19.072;2023-07-31T04:08:50;4.67;;;3.73;;
75496;SDS011;64074;47.540;19.072;2023-07-31T04:11:54;4.22;;;3.28;;
75496;SDS011;64074;47.540;19.072;2023-07-31T04:14:56;5.20;;;3.60;;
75496;SDS011;64074;47.540;19.072;2023-07-31T04:18:00;3.70;;;2.95;;
75496;SDS011;64074;47.540;19.072;2023-07-31T04:21:03;3.10;;;2.80;;
75496;SDS011;64074;47.540;19.072;2023-07-31T04:24:06;4.37;;;3.00;;
75496;SDS011;64074;47.540;19.072;2023-07-31T04:27:09;4.97;;;3.38;;
75496;SDS011;64074;47.540;19.072;2023-07-31T04:30:12;3.15;;;2.63;;
75496;SDS011;64074;47.540;19.072;2023-07-31T04:33:15;3.75;;;3.08;;
75496;SDS011;64074;47.540;19.072;2023-07-31T04:36:18;4.97;;;3.30;;
75496;SDS011;64074;47.540;19.072;2023-07-31T04:39:21;6.27;;;3.87;;
75496;SDS011;64074;47.540;19.072;2023-07-31T04:42:23;4.75;;;2.72;;
75496;SDS011;64074;47.540;19.072;2023-07-31T04:45:26;3.10;;;2.58;;
75496;SDS011;64074;47.540;19.072;2023-07-31T04:48:30;3.95;;;2.67;;
75496;SDS011;64074;47.540;19.072;2023-07-31T04:51:32;4.03;;;2.83;;
75496;SDS011;64074;47.540;19.072;2023-07-31T04:54:35;3.47;;;2.63;;
75496;SDS011;64074;47.540;19.072;2023-07-31T04:57:38;5.00;;;2.85;;
75496;SDS011;64074;47.540;19.072;2023-07-31T05:00:41;2.22;;;1.92;;
75496;SDS011;64074;47.540;19.072;2023-07-31T05:03:43;4.03;;;2.70;;
75496;SDS011;64074;47.540;19.072;2023-07-31T05:06:46;3.20;;;2.50;;
75496;SDS011;64074;47.540;19.072;2023-07-31T05:09:49;4.40;;;2.60;;
75496;SDS011;64074;47.540;19.072;2023-07-31T05:12:52;5.80;;;2.60;;
75496;SDS011;64074;47.540;19.072;2023-07-31T05:15:55;3.83;;;2.42;;
75496;SDS011;64074;47.540;19.072;2023-07-31T05:18:58;3.55;;;2.28;;
75496;SDS011;64074;47.540;19.072;2023-07-31T05:22:02;4.60;;;2.20;;
75496;SDS011;64074;47.540;19.072;2023-07-31T05:25:05;5.03;;;2.20;;
75496;SDS011;64074;47.540;19.072;2023-07-31T05:28:09;4.68;;;2.10;;
75496;SDS011;64074;47.540;19.072;2023-07-31T05:31:12;3.55;;;2.03;;
75496;SDS011;64074;47.540;19.072;2023-07-31T05:34:16;3.28;;;1.85;;
75496;SDS011;64074;47.540;19.072;2023-07-31T05:37:19;2.63;;;1.80;;
75496;SDS011;64074;47.540;19.072;2023-07-31T05:40:22;4.33;;;1.70;;
75496;SDS011;64074;47.540;19.072;2023-07-31T05:43:25;3.95;;;1.63;;
75496;SDS011;64074;47.540;19.072;2023-07-31T05:46:28;5.07;;;2.10;;
75496;SDS011;64074;47.540;19.072;2023-07-31T05:49:32;3.80;;;2.00;;
75496;SDS011;64074;47.540;19.072;2023-07-31T05:52:35;3.57;;;1.80;;
75496;SDS011;64074;47.540;19.072;2023-07-31T05:55:38;3.03;;;2.20;;
75496;SDS011;64074;47.540;19.072;2023-07-31T05:58:41;3.58;;;2.08;;
75496;SDS011;64074;47.540;19.072;2023-07-31T06:01:45;3.22;;;1.98;;
75496;SDS011;64074;47.540;19.072;2023-07-31T06:04:48;3.13;;;1.80;;
75496;SDS011;64074;47.540;19.072;2023-07-31T06:07:52;3.73;;;2.10;;
75496;SDS011;64074;47.540;19.072;2023-07-31T06:10:54;4.50;;;2.00;;
75496;SDS011;64074;47.540;19.072;2023-07-31T06:13:57;4.97;;;1.95;;
75496;SDS011;64074;47.540;19.072;2023-07-31T06:17:00;3.88;;;1.77;;
75496;SDS011;64074;47.540;19.072;2023-07-31T06:20:03;5.18;;;1.80;;
75496;SDS011;64074;47.540;19.072;2023-07-31T06:23:09;5.27;;;1.83;;
75496;SDS011;64074;47.540;19.072;2023-07-31T06:26:12;4.53;;;2.37;;
75496;SDS011;64074;47.540;19.072;2023-07-31T06:29:15;5.07;;;1.70;;
75496;SDS011;64074;47.540;19.072;2023-07-31T06:32:18;4.10;;;1.67;;
75496;SDS011;64074;47.540;19.072;2023-07-31T06:35:21;4.28;;;1.90;;
75496;SDS011;64074;47.540;19.072;2023-07-31T06:38:24;3.57;;;1.63;;
75496;SDS011;64074;47.540;19.072;2023-07-31T06:41:28;3.63;;;1.60;;
75496;SDS011;64074;47.540;19.072;2023-07-31T06:44:31;2.95;;;1.63;;
75496;SDS011;64074;47.540;19.072;2023-07-31T06:47:34;3.47;;;1.90;;
75496;SDS011;64074;47.540;19.072;2023-07-31T06:50:37;2.92;;;2.05;;
75496;SDS011;64074;47.540;19.072;2023-07-31T06:53:41;3.33;;;2.23;;
75496;SDS011;64074;47.540;19.072;2023-07-31T06:56:45;3.03;;;1.90;;
75496;SDS011;64074;47.540;19.072;2023-07-31T06:59:48;4.07;;;1.95;;
75496;SDS011;64074;47.540;19.072;2023-07-31T07:02:51;4.18;;;1.83;;
75496;SDS011;64074;47.540;19.072;2023-07-31T07:05:55;4.75;;;1.65;;
75496;SDS011;64074;47.540;19.072;2023-07-31T07:08:58;6.53;;;1.87;;
75496;SDS011;64074;47.540;19.072;2023-07-31T07:12:01;2.70;;;1.50;;
75496;SDS011;64074;47.540;19.072;2023-07-31T07:15:03;3.60;;;1.80;;
75496;SDS011;64074;47.540;19.072;2023-07-31T07:18:07;4.55;;;2.17;;
75496;SDS011;64074;47.540;19.072;2023-07-31T07:21:13;3.03;;;1.98;;
75496;SDS011;64074;47.540;19.072;2023-07-31T07:24:18;3.00;;;2.10;;
75496;SDS011;64074;47.540;19.072;2023-07-31T07:27:20;2.20;;;2.00;;
75496;SDS011;64074;47.540;19.072;2023-07-31T07:30:24;4.45;;;2.10;;
75496;SDS011;64074;47.540;19.072;2023-07-31T07:33:27;3.40;;;2.28;;
75496;SDS011;64074;47.540;19.072;2023-07-31T07:36:30;3.97;;;2.38;;
75496;SDS011;64074;47.540;19.072;2023-07-31T07:39:35;3.37;;;2.10;;
75496;SDS011;64074;47.540;19.072;2023-07-31T07:42:38;8.47;;;4.00;;
75496;SDS011;64074;47.540;19.072;2023-07-31T07:45:41;6.75;;;2.70;;
75496;SDS011;64074;47.540;19.072;2023-07-31T07:48:43;2.88;;;1.77;;
75496;SDS011;64074;47.540;19.072;2023-07-31T07:51:47;4.90;;;2.00;;
75496;SDS011;64074;47.540;19.072;2023-07-31T07:54:51;5.23;;;1.70;;
75496;SDS011;64074;47.540;19.072;2023-07-31T07:57:54;3.63;;;1.70;;
75496;SDS011;64074;47.540;19.072;2023-07-31T08:00:57;3.88;;;1.75;;
75496;SDS011;64074;47.540;19.072;2023-07-31T08:04:00;2.53;;;1.35;;
75496;SDS011;64074;47.540;19.072;2023-07-31T08:07:04;2.63;;;1.40;;
75496;SDS011;64074;47.540;19.072;2023-07-31T08:10:07;2.97;;;1.77;;
75496;SDS011;64074;47.540;19.072;2023-07-31T08:13:12;2.93;;;1.63;;
75496;SDS011;64074;47.540;19.072;2023-07-31T08:16:16;5.45;;;1.83;;
75496;SDS011;64074;47.540;19.072;2023-07-31T08:19:19;2.90;;;1.70;;
75496;SDS011;64074;47.540;19.072;2023-07-31T08:22:22;4.15;;;1.70;;
75496;SDS011;64074;47.540;19.072;2023-07-31T08:25:26;3.93;;;2.00;;
75496;SDS011;64074;47.540;19.072;2023-07-31T08:28:29;3.27;;;2.13;;
75496;SDS011;64074;47.540;19.072;2023-07-31T08:31:33;3.83;;;1.98;;
75496;SDS011;64074;47.540;19.072;2023-07-31T08:34:37;4.28;;;2.58;;
75496;SDS011;64074;47.540;19.072;2023-07-31T08:37:40;4.80;;;2.22;;
75496;SDS011;64074;47.540;19.072;2023-07-31T08:40:43;2.73;;;1.93;;
75496;SDS011;64074;47.540;19.072;2023-07-31T08:43:47;4.07;;;2.00;;
75496;SDS011;64074;47.540;19.072;2023-07-31T08:46:52;4.00;;;2.00;;
75496;SDS011;64074;47.540;19.072;2023-07-31T08:49:55;6.15;;;1.95;;
75496;SDS011;64074;47.540;19.072;2023-07-31T08:52:59;5.05;;;2.00;;
75496;SDS011;64074;47.540;19.072;2023-07-31T08:56:02;4.73;;;2.07;;
75496;SDS011;64074;47.540;19.072;2023-07-31T08:59:06;5.00;;;2.00;;
75496;SDS011;64074;47.540;19.072;2023-07-31T09:02:11;5.15;;;1.95;;
75496;SDS011;64074;47.540;19.072;2023-07-31T09:05:17;2.58;;;1.83;;
75496;SDS011;64074;47.540;19.072;2023-07-31T09:08:21;5.65;;;2.20;;
75496;SDS011;64074;47.540;19.072;2023-07-31T09:11:25;5.93;;;1.70;;
75496;SDS011;64074;47.540;19.072;2023-07-31T09:14:29;2.73;;;1.77;;
75496;SDS011;64074;47.540;19.072;2023-07-31T09:17:34;5.57;;;2.15;;
75496;SDS011;64074;47.540;19.072;2023-07-31T09:20:41;3.88;;;2.08;;
75496;SDS011;64074;47.540;19.072;2023-07-31T09:23:45;4.32;;;1.90;;
75496;SDS011;64074;47.540;19.072;2023-07-31T09:26:51;3.20;;;1.97;;
75496;SDS011;64074;47.540;19.072;2023-07-31T09:30:01;4.40;;;1.63;;
75496;SDS011;64074;47.540;19.072;2023-07-31T09:33:04;3.92;;;1.88;;
75496;SDS011;64074;47.540;19.072;2023-07-31T09:36:12;9.25;;;3.95;;
75496;SDS011;64074;47.540;19.072;2023-07-31T09:39:17;6.93;;;2.80;;
75496;SDS011;64074;47.540;19.072;2023-07-31T09:42:26;8.83;;;2.07;;
75496;SDS011;64074;47.540;19.072;2023-07-31T09:45:29;3.67;;;2.53;;
75496;SDS011;64074;47.540;19.072;2023-07-31T09:48:42;6.03;;;1.92;;
75496;SDS011;64074;47.540;19.072;2023-07-31T09:51:46;3.90;;;2.65;;
75496;SDS011;64074;47.540;19.072;2023-07-31T09:54:48;3.42;;;2.47;;
75496;SDS011;64074;47.540;19.072;2023-07-31T09:57:51;5.37;;;2.00;;
75496;SDS011;64074;47.540;19.072;2023-07-31T10:00:57;5.07;;;2.23;;
75496;SDS011;64074;47.540;19.072;2023-07-31T10:04:01;3.92;;;2.10;;
75496;SDS011;64074;47.540;19.072;2023-07-31T10:07:06;4.45;;;1.77;;
75496;SDS011;64074;47.540;19.072;2023-07-31T10:10:10;4.38;;;1.90;;
75496;SDS011;64074;47.540;19.072;2023-07-31T10:13:14;6.60;;;2.57;;
75496;SDS011;64074;47.540;19.072;2023-07-31T10:16:18;8.97;;;2.40;;
75496;SDS011;64074;47.540;19.072;2023-07-31T10:19:23;5.57;;;1.92;;
75496;SDS011;64074;47.540;19.072;2023-07-31T10:22:27;7.22;;;2.08;;
75496;SDS011;64074;47.540;19.072;2023-07-31T10:25:30;3.60;;;2.10;;
75496;SDS011;64074;47.540;19.072;2023-07-31T10:28:35;3.70;;;1.67;;
75496;SDS011;64074;47.540;19.072;2023-07-31T10:31:40;3.50;;;1.93;;
75496;SDS011;64074;47.540;19.072;2023-07-31T10:34:44;5.97;;;2.55;;
75496;SDS011;64074;47.540;19.072;2023-07-31T10:37:49;4.55;;;2.20;;
75496;SDS011;64074;47.540;19.072;2023-07-31T10:40:53;2.50;;;1.90;;
75496;SDS011;64074;47.540;19.072;2023-07-31T10:44:12;3.87;;;1.90;;
75496;SDS011;64074;47.540;19.072;2023-07-31T10:47:18;5.07;;;1.90;;
75496;SDS011;64074;47.540;19.072;2023-07-31T10:50:22;7.65;;;3.40;;
75496;SDS011;64074;47.540;19.072;2023-07-31T10:56:37;3.17;;;1.58;;
75496;SDS011;64074;47.540;19.072;2023-07-31T10:59:42;4.10;;;1.77;;
75496;SDS011;64074;47.540;19.072;2023-07-31T11:03:02;4.50;;;1.63;;
75496;SDS011;64074;47.540;19.072;2023-07-31T11:06:18;7.47;;;2.17;;
75496;SDS011;64074;47.540;19.072;2023-07-31T11:09:22;4.55;;;1.63;;
75496;SDS011;64074;47.540;19.072;2023-07-31T11:12:27;2.72;;;1.77;;
75496;SDS011;64074;47.540;19.072;2023-07-31T11:15:32;5.47;;;2.20;;
75496;SDS011;64074;47.540;19.072;2023-07-31T11:18:38;3.37;;;1.70;;
75496;SDS011;64074;47.540;19.072;2023-07-31T11:21:44;5.25;;;1.90;;
75496;SDS011;64074;47.540;19.072;2023-07-31T11:24:48;5.05;;;1.83;;
75496;SDS011;64074;47.540;19.072;2023-07-31T11:27:50;2.28;;;1.50;;
75496;SDS011;64074;47.540;19.072;2023-07-31T11:30:56;4.93;;;1.70;;
75496;SDS011;64074;47.540;19.072;2023-07-31T11:34:04;4.13;;;1.73;;
75496;SDS011;64074;47.540;19.072;2023-07-31T11:37:08;5.00;;;1.73;;
75496;SDS011;64074;47.540;19.072;2023-07-31T11:40:12;5.88;;;2.95;;
75496;SDS011;64074;47.540;19.072;2023-07-31T11:43:15;3.80;;;1.40;;
75496;SDS011;64074;47.540;19.072;2023-07-31T11:46:22;11.70;;;1.97;;
75496;SDS011;64074;47.540;19.072;2023-07-31T11:49:26;3.93;;;1.90;;
75496;SDS011;64074;47.540;19.072;2023-07-31T11:52:30;4.25;;;2.00;;
75496;SDS011;64074;47.540;19.072;2023-07-31T11:55:37;4.03;;;1.60;;
75496;SDS011;64074;47.540;19.072;2023-07-31T11:58:40;2.78;;;1.70;;
75496;SDS011;64074;47.540;19.072;2023-07-31T12:01:44;4.20;;;1.77;;
75496;SDS011;64074;47.540;19.072;2023-07-31T12:04:48;2.40;;;1.60;;
75496;SDS011;64074;47.540;19.072;2023-07-31T12:07:51;4.35;;;1.83;;
75496;SDS011;64074;47.540;19.072;2023-07-31T12:11:02;4.70;;;2.22;;
75496;SDS011;64074;47.540;19.072;2023-07-31T12:14:07;5.82;;;1.83;;
75496;SDS011;64074;47.540;19.072;2023-07-31T12:17:12;3.90;;;1.80;;
75496;SDS011;64074;47.540;19.072;2023-07-31T12:20:17;3.50;;;2.20;;
75496;SDS011;64074;47.540;19.072;2023-07-31T12:23:33;5.30;;;1.92;;
75496;SDS011;64074;47.540;19.072;2023-07-31T12:26:38;6.90;;;2.33;;
75496;SDS011;64074;47.540;19.072;2023-07-31T12:29:42;3.65;;;2.00;;
75496;SDS011;64074;47.540;19.072;2023-07-31T12:32:48;6.53;;;1.93;;
75496;SDS011;64074;47.540;19.072;2023-07-31T12:35:51;3.00;;;2.10;;
75496;SDS011;64074;47.540;19.072;2023-07-31T12:38:54;5.53;;;2.10;;
75496;SDS011;64074;47.540;19.072;2023-07-31T12:41:59;3.92;;;2.10;;
75496;SDS011;64074;47.540;19.072;2023-07-31T12:45:02;3.97;;;2.28;;
75496;SDS011;64074;47.540;19.072;2023-07-31T12:48:07;3.10;;;2.10;;
75496;SDS011;64074;47.540;19.072;2023-07-31T12:51:12;4.53;;;2.30;;
75496;SDS011;64074;47.540;19.072;2023-07-31T12:54:19;3.83;;;2.30;;
75496;SDS011;64074;47.540;19.072;2023-07-31T12:57:21;4.18;;;2.15;;
75496;SDS011;64074;47.540;19.072;2023-07-31T13:00:25;4.05;;;1.92;;
75496;SDS011;64074;47.540;19.072;2023-07-31T13:03:28;3.83;;;2.00;;
75496;SDS011;64074;47.540;19.072;2023-07-31T13:06:31;3.77;;;2.23;;
75496;SDS011;64074;47.540;19.072;2023-07-31T13:09:34;2.40;;;2.00;;
75496;SDS011;64074;47.540;19.072;2023-07-31T13:12:37;4.05;;;2.53;;
75496;SDS011;64074;47.540;19.072;2023-07-31T13:15:41;6.03;;;2.38;;
75496;SDS011;64074;47.540;19.072;2023-07-31T13:18:44;4.80;;;2.73;;
75496;SDS011;64074;47.540;19.072;2023-07-31T13:21:48;7.00;;;2.57;;
75496;SDS011;64074;47.540;19.072;2023-07-31T13:24:51;2.80;;;1.83;;
75496;SDS011;64074;47.540;19.072;2023-07-31T13:27:55;3.55;;;2.67;;
75496;SDS011;64074;47.540;19.072;2023-07-31T13:31:00;4.13;;;2.28;;
75496;SDS011;64074;47.540;19.072;2023-07-31T13:34:03;3.17;;;2.30;;
75496;SDS011;64074;47.540;19.072;2023-07-31T13:37:07;3.77;;;2.53;;
75496;SDS011;64074;47.540;19.072;2023-07-31T13:40:11;4.80;;;2.25;;
75496;SDS011;64074;47.540;19.072;2023-07-31T13:43:14;5.50;;;2.28;;
75496;SDS011;64074;47.540;19.072;2023-07-31T13:46:17;2.58;;;2.10;;
75496;SDS011;64074;47.540;19.072;2023-07-31T13:49:20;3.03;;;2.40;;
75496;SDS011;64074;47.540;19.072;2023-07-31T13:52:23;3.73;;;2.10;;
75496;SDS011;64074;47.540;19.072;2023-07-31T13:55:26;3.38;;;2.22;;
75496;SDS011;64074;47.540;19.072;2023-07-31T13:58:29;3.58;;;2.20;;
75496;SDS011;64074;47.540;19.072;2023-07-31T14:01:34;2.78;;;2.00;;
75496;SDS011;64074;47.540;19.072;2023-07-31T14:04:37;3.43;;;2.60;;
75496;SDS011;64074;47.540;19.072;2023-07-31T14:07:40;3.13;;;2.50;;
75496;SDS011;64074;47.540;19.072;2023-07-31T14:10:43;4.10;;;2.10;;
75496;SDS011;64074;47.540;19.072;2023-07-31T14:13:46;3.60;;;1.92;;
75496;SDS011;64074;47.540;19.072;2023-07-31T14:16:50;3.20;;;1.85;;
75496;SDS011;64074;47.540;19.072;2023-07-31T14:19:53;4.00;;;2.20;;
75496;SDS011;64074;47.540;19.072;2023-07-31T14:22:57;4.03;;;1.90;;
75496;SDS011;64074;47.540;19.072;2023-07-31T14:26:00;2.60;;;2.13;;
75496;SDS011;64074;47.540;19.072;2023-07-31T14:29:03;3.30;;;1.65;;
75496;SDS011;64074;47.540;19.072;2023-07-31T14:32:07;4.38;;;2.25;;
75496;SDS011;64074;47.540;19.072;2023-07-31T14:35:11;4.93;;;2.20;;
75496;SDS011;64074;47.540;19.072;2023-07-31T14:38:15;5.70;;;2.47;;
75496;SDS011;64074;47.540;19.072;2023-07-31T14:41:17;4.00;;;1.90;;
75496;SDS011;64074;47.540;19.072;2023-07-31T14:44:20;3.92;;;2.00;;
75496;SDS011;64074;47.540;19.072;2023-07-31T14:47:23;2.67;;;2.33;;
75496;SDS011;64074;47.540;19.072;2023-07-31T14:50:26;3.37;;;2.70;;
75496;SDS011;64074;47.540;19.072;2023-07-31T14:53:29;3.40;;;2.00;;
75496;SDS011;64074;47.540;19.072;2023-07-31T14:56:32;3.38;;;1.60;;
75496;SDS011;64074;47.540;19.072;2023-07-31T14:59:35;3.03;;;1.88;;
75496;SDS011;64074;47.540;19.072;2023-07-31T15:02:38;7.57;;;2.17;;
75496;SDS011;64074;47.540;19.072;2023-07-31T15:05:41;2.13;;;1.73;;
75496;SDS011;64074;47.540;19.072;2023-07-31T15:08:44;5.97;;;1.90;;
75496;SDS011;64074;47.540;19.072;2023-07-31T15:11:47;3.25;;;1.67;;
75496;SDS011;64074;47.540;19.072;2023-07-31T15:14:50;4.82;;;1.80;;
75496;SDS011;64074;47.540;19.072;2023-07-31T15:17:54;4.53;;;1.63;;
75496;SDS011;64074;47.540;19.072;2023-07-31T15:20:58;4.03;;;1.70;;
75496;SDS011;64074;47.540;19.072;2023-07-31T15:24:01;3.60;;;1.73;;
75496;SDS011;64074;47.540;19.072;2023-07-31T15:27:05;4.95;;;1.80;;
75496;SDS011;64074;47.540;19.072;2023-07-31T15:30:09;2.60;;;1.75;;
75496;SDS011;64074;47.540;19.072;2023-07-31T15:33:12;3.22;;;1.50;;
75496;SDS011;64074;47.540;19.072;2023-07-31T15:36:15;3.03;;;1.70;;
75496;SDS011;64074;47.540;19.072;2023-07-31T15:39:19;3.67;;;1.60;;
75496;SDS011;64074;47.540;19.072;2023-07-31T15:42:22;3.00;;;1.58;;
75496;SDS011;64074;47.540;19.072;2023-07-31T15:45:25;2.20;;;1.45;;
75496;SDS011;64074;47.540;19.072;2023-07-31T15:48:27;4.28;;;1.70;;
75496;SDS011;64074;47.540;19.072;2023-07-31T15:51:32;3.23;;;1.57;;
75496;SDS011;64074;47.540;19.072;2023-07-31T15:54:36;3.63;;;1.97;;
75496;SDS011;64074;47.540;19.072;2023-07-31T15:57:38;2.70;;;1.50;;
75496;SDS011;64074;47.540;19.072;2023-07-31T16:00:42;2.20;;;1.30;;
75496;SDS011;64074;47.540;19.072;2023-07-31T16:03:45;3.75;;;1.70;;
75496;SDS011;64074;47.540;19.072;2023-07-31T16:06:48;3.10;;;1.63;;
75496;SDS011;64074;47.540;19.072;2023-07-31T16:09:51;2.40;;;1.50;;
75496;SDS011;64074;47.540;19.072;2023-07-31T16:12:54;2.72;;;1.65;;
75496;SDS011;64074;47.540;19.072;2023-07-31T16:15:58;2.28;;;1.30;;
75496;SDS011;64074;47.540;19.072;2023-07-31T16:19:01;3.25;;;1.60;;
75496;SDS011;64074;47.540;19.072;2023-07-31T16:22:04;4.13;;;1.43;;
75496;SDS011;64074;47.540;19.072;2023-07-31T16:25:11;3.37;;;1.40;;
75496;SDS011;64074;47.540;19.072;2023-07-31T16:28:15;2.75;;;1.35;;
75496;SDS011;64074;47.540;19.072;2023-07-31T16:31:19;3.80;;;1.38;;
75496;SDS011;64074;47.540;19.072;2023-07-31T16:34:23;1.98;;;1.20;;
75496;SDS011;64074;47.540;19.072;2023-07-31T16:37:27;2.73;;;1.40;;
75496;SDS011;64074;47.540;19.072;2023-07-31T16:40:30;3.50;;;1.30;;
75496;SDS011;64074;47.540;19.072;2023-07-31T16:43:33;2.90;;;1.38;;
75496;SDS011;64074;47.540;19.072;2023-07-31T16:46:36;3.40;;;1.60;;
75496;SDS011;64074;47.540;19.072;2023-07-31T16:49:40;3.20;;;1.60;;
75496;SDS011;64074;47.540;19.072;2023-07-31T16:52:43;3.10;;;1.57;;
75496;SDS011;64074;47.540;19.072;2023-07-31T16:55:46;2.70;;;1.50;;
75496;SDS011;64074;47.540;19.072;2023-07-31T16:58:50;2.83;;;1.60;;
75496;SDS011;64074;47.540;19.072;2023-07-31T17:01:54;2.80;;;1.60;;
75496;SDS011;64074;47.540;19.072;2023-07-31T17:05:01;3.78;;;1.67;;
75496;SDS011;64074;47.540;19.072;2023-07-31T17:08:05;2.80;;;1.43;;
75496;SDS011;64074;47.540;19.072;2023-07-31T17:11:08;3.03;;;1.30;;
75496;SDS011;64074;47.540;19.072;2023-07-31T17:14:11;2.05;;;1.55;;
75496;SDS011;64074;47.540;19.072;2023-07-31T17:17:17;4.32;;;1.40;;
75496;SDS011;64074;47.540;19.072;2023-07-31T17:20:21;3.75;;;1.65;;
75496;SDS011;64074;47.540;19.072;2023-07-31T17:23:24;3.03;;;1.77;;
75496;SDS011;64074;47.540;19.072;2023-07-31T17:26:27;4.77;;;1.57;;
75496;SDS011;64074;47.540;19.072;2023-07-31T17:29:31;2.47;;;1.80;;
75496;SDS011;64074;47.540;19.072;2023-07-31T17:32:33;3.83;;;1.70;;
75496;SDS011;64074;47.540;19.072;2023-07-31T17:35:36;3.55;;;1.60;;
75496;SDS011;64074;47.540;19.072;2023-07-31T17:38:40;2.73;;;1.30;;
75496;SDS011;64074;47.540;19.072;2023-07-31T17:41:42;2.50;;;1.30;;
75496;SDS011;64074;47.540;19.072;2023-07-31T17:44:45;1.85;;;1.40;;
75496;SDS011;64074;47.540;19.072;2023-07-31T17:47:48;4.72;;;1.42;;
75496;SDS011;64074;47.540;19.072;2023-07-31T17:50:51;2.70;;;1.40;;
75496;SDS011;64074;47.540;19.072;2023-07-31T17:53:55;2.83;;;1.67;;
75496;SDS011;64074;47.540;19.072;2023-07-31T17:56:59;3.70;;;1.57;;
75496;SDS011;64074;47.540;19.072;2023-07-31T18:00:02;4.47;;;1.60;;
75496;SDS011;64074;47.540;19.072;2023-07-31T18:03:07;2.83;;;1.27;;
75496;SDS011;64074;47.540;19.072;2023-07-31T18:06:11;2.65;;;1.42;;
75496;SDS011;64074;47.540;19.072;2023-07-31T18:09:14;3.63;;;1.80;;
75496;SDS011;64074;47.540;19.072;2023-07-31T18:12:17;2.93;;;1.60;;
75496;SDS011;64074;47.540;19.072;2023-07-31T18:15:20;3.92;;;1.60;;
75496;SDS011;64074;47.540;19.072;2023-07-31T18:18:23;3.17;;;1.30;;